Pagina principale
METAR-TAF:

METAR-TAF

Aeroporti :

Yeovilton, Inghilterra

latitudine: 51-00N, longitudine: 002-38W, altezza: 23 m

Osservazione

Il bollettino è stato emesso 38 minuti fa, alle 05:50 UTC
Vento 6 kt da nord/nord-ovest
Temperature 5°C
Umidità 87%
Pressione 1017 hPa
Visibilità 10 km o più

METAR: EGDY 180550Z AUTO 34006KT 9999 FEW017/// 05/03 Q1017

Ora: 06:28 (06:28 UTC)


TAF: mancante

Osservazioni e previsioni meteorologiche di più di 4000 aeroporti (messaggi METAR e TAF).

Le stazioni disponibili sono rappresentate dai dischi gialli e rossi sulla carta.

Puntare il mouse per vedere il nome della stazione.

Clicca sopra per visualizzare le osservazioni e previsioni meteorologiche.

Per cambiare la mappa : fare clic sui pulsanti verdi con una croce nera per ingrandire, il pulsante verde con un trattino per diminuire, o sulla freccia verde per le mappe adiacenti.


METAR-TAF: